createdAt,value
2018-04-16T00:01:47.082Z,100445.98
2018-04-16T00:07:16.912Z,100445.22
2018-04-16T00:09:45.974Z,100449.38
2018-04-16T00:15:25.302Z,100447.06
2018-04-16T00:23:42.734Z,100448.22
2018-04-16T00:26:22.507Z,100451.14
2018-04-16T00:35:19.463Z,100456.72
2018-04-16T00:38:01.070Z,100462.01
2018-04-16T00:40:38.147Z,100458.34
2018-04-16T00:43:12.369Z,100463.81
2018-04-16T00:45:47.440Z,100463.92
2018-04-16T00:48:30.627Z,100464.27
2018-04-16T00:51:12.076Z,100468.72
2018-04-16T00:53:57.984Z,100466.02
2018-04-16T00:56:39.264Z,100468.67
2018-04-16T00:59:20.035Z,100460.31
2018-04-16T01:01:55.786Z,100462.70
2018-04-16T01:04:28.905Z,100463.81
2018-04-16T01:07:01.968Z,100463.25
2018-04-16T01:09:35.029Z,100471.73
2018-04-16T01:12:08.080Z,100474.53
2018-04-16T01:14:41.216Z,100477.58
2018-04-16T01:17:14.260Z,100474.84
2018-04-16T01:19:47.364Z,100470.39
2018-04-16T01:22:20.381Z,100476.40
2018-04-16T01:24:54.098Z,100474.37
2018-04-16T01:27:28.576Z,100472.86
2018-04-16T01:30:01.833Z,100475.23
2018-04-16T01:32:36.636Z,100472.85
2018-04-16T01:35:09.961Z,100480.45
2018-04-16T01:37:44.455Z,100483.83
2018-04-16T01:40:17.651Z,100481.41
2018-04-16T01:42:51.067Z,100474.56
2018-04-16T01:45:24.341Z,100483.78
2018-04-16T01:47:57.547Z,100486.12
2018-04-16T01:50:30.736Z,100488.61
2018-04-16T01:53:03.883Z,100481.67
2018-04-16T01:55:37.279Z,100483.81
2018-04-16T01:58:10.489Z,100482.88
2018-04-16T02:00:43.894Z,100483.14
2018-04-16T02:03:18.259Z,100482.05
2018-04-16T02:05:52.027Z,100481.88
2018-04-16T02:08:25.286Z,100491.58
2018-04-16T02:11:02.094Z,100488.66
2018-04-16T02:13:36.679Z,100483.31
2018-04-16T02:16:09.913Z,100487.44
2018-04-16T02:18:43.424Z,100495.95
2018-04-16T02:21:17.824Z,100496.92
2018-04-16T02:23:51.754Z,100498.59
2018-04-16T02:26:24.998Z,100495.55
2018-04-16T02:28:58.033Z,100491.61
2018-04-16T02:31:31.208Z,100489.41
2018-04-16T02:34:04.277Z,100484.78
2018-04-16T02:36:37.383Z,100484.96
2018-04-16T02:39:12.709Z,100491.28
2018-04-16T02:41:45.841Z,100487.62
2018-04-16T02:44:18.922Z,100493.72
2018-04-16T02:46:52.139Z,100495.38
2018-04-16T02:49:25.294Z,100501.31
2018-04-16T02:51:58.334Z,100506.59
2018-04-16T02:54:31.486Z,100514.71
2018-04-16T02:57:04.759Z,100513.89
2018-04-16T02:59:37.927Z,100501.89
2018-04-16T03:02:11.060Z,100507.00
2018-04-16T03:04:44.280Z,100502.93
2018-04-16T03:07:17.351Z,100505.78
2018-04-16T03:09:50.710Z,100512.55
2018-04-16T03:12:24.035Z,100510.41
2018-04-16T03:14:57.125Z,100514.63
2018-04-16T03:17:30.270Z,100528.52
2018-04-16T03:20:03.480Z,100519.23
2018-04-16T03:22:36.740Z,100523.95
2018-04-16T03:25:09.871Z,100525.21
2018-04-16T03:27:43.073Z,100527.32
2018-04-16T03:30:16.141Z,100525.12
2018-04-16T03:32:50.063Z,100524.22
2018-04-16T03:35:23.337Z,100529.74
2018-04-16T03:37:56.508Z,100532.54
2018-04-16T03:43:32.214Z,100539.41
2018-04-16T03:46:05.400Z,100539.91
2018-04-16T03:48:38.554Z,100544.06
2018-04-16T03:51:10.877Z,100542.83
2018-04-16T03:53:40.355Z,100543.41
2018-04-16T03:56:08.077Z,100549.49
2018-04-16T03:58:35.757Z,100550.95
2018-04-16T04:01:03.369Z,100548.27
2018-04-16T04:03:31.098Z,100550.02
2018-04-16T04:05:58.729Z,100552.85
2018-04-16T04:08:26.321Z,100550.59
2018-04-16T04:10:54.009Z,100551.75
2018-04-16T04:13:21.640Z,100549.06
2018-04-16T04:15:49.502Z,100550.83
2018-04-16T04:18:17.130Z,100553.52
2018-04-16T04:20:44.894Z,100564.93
2018-04-16T04:23:24.066Z,100567.95
2018-04-16T04:26:03.363Z,100562.39
2018-04-16T04:28:42.679Z,100562.58
2018-04-16T04:31:10.869Z,100566.03
2018-04-16T04:33:38.623Z,100563.17
2018-04-16T04:36:06.346Z,100569.84
2018-04-16T04:38:34.046Z,100567.33
2018-04-16T04:41:01.753Z,100563.31
2018-04-16T04:43:29.386Z,100569.92
2018-04-16T04:45:57.261Z,100565.20
2018-04-16T04:48:24.913Z,100571.66
2018-04-16T04:50:52.681Z,100583.87
2018-04-16T04:53:20.360Z,100587.89
2018-04-16T04:55:48.211Z,100593.94
2018-04-16T04:58:15.901Z,100597.98
2018-04-16T05:00:43.559Z,100602.62
2018-04-16T05:03:11.345Z,100606.59
2018-04-16T05:05:39.013Z,100607.05
2018-04-16T05:08:06.672Z,100610.06
2018-04-16T05:10:34.837Z,100605.57
2018-04-16T05:13:02.616Z,100603.51
2018-04-16T05:15:30.237Z,100611.25
2018-04-16T05:17:57.946Z,100616.97
2018-04-16T05:20:25.564Z,100625.50
2018-04-16T05:22:53.201Z,100613.94
2018-04-16T05:25:20.837Z,100619.69
2018-04-16T05:27:48.489Z,100617.64
2018-04-16T05:30:16.108Z,100615.25
2018-04-16T05:32:43.969Z,100626.07
2018-04-16T05:35:11.567Z,100626.07
2018-04-16T05:37:39.226Z,100629.59
2018-04-16T05:40:06.821Z,100628.26
2018-04-16T05:42:34.459Z,100625.04
2018-04-16T05:45:02.203Z,100631.67
2018-04-16T05:47:29.838Z,100641.60
2018-04-16T05:49:57.538Z,100642.33
2018-04-16T05:52:25.199Z,100644.01
2018-04-16T05:54:52.895Z,100642.38
2018-04-16T05:57:20.794Z,100647.08
2018-04-16T05:59:48.402Z,100652.48
2018-04-16T06:02:16.036Z,100656.44
2018-04-16T06:04:43.713Z,100644.54
2018-04-16T06:07:11.320Z,100651.72
2018-04-16T06:09:38.973Z,100657.27
2018-04-16T06:12:06.813Z,100662.32
2018-04-16T06:14:34.793Z,100659.80
2018-04-16T06:17:02.762Z,100657.37
2018-04-16T06:19:30.465Z,100658.53
2018-04-16T06:21:58.095Z,100659.07
2018-04-16T06:24:26.021Z,100662.58
2018-04-16T06:26:53.621Z,100661.02
2018-04-16T06:29:21.341Z,100673.47
2018-04-16T06:31:48.941Z,100678.36
2018-04-16T06:34:16.595Z,100679.95
2018-04-16T06:36:44.321Z,100686.83
2018-04-16T06:39:11.920Z,100683.08
2018-04-16T06:41:39.652Z,100690.42
2018-04-16T06:44:07.269Z,100696.09
2018-04-16T06:46:34.940Z,100700.77
2018-04-16T06:49:02.588Z,100708.31
2018-04-16T06:51:30.208Z,100708.44
2018-04-16T06:53:57.864Z,100707.45
2018-04-16T06:56:25.504Z,100705.03
2018-04-16T06:58:53.133Z,100717.20
2018-04-16T07:01:20.838Z,100711.42
2018-04-16T07:03:48.452Z,100720.22
2018-04-16T07:06:16.101Z,100717.12
2018-04-16T07:08:43.786Z,100715.48
2018-04-16T07:11:11.459Z,100725.77
2018-04-16T07:13:39.152Z,100726.09
2018-04-16T07:16:06.812Z,100713.86
2018-04-16T07:18:34.476Z,100719.17
2018-04-16T07:21:02.154Z,100722.19
2018-04-16T07:23:29.763Z,100727.78
2018-04-16T07:25:57.418Z,100728.91
2018-04-16T07:28:25.025Z,100731.38
2018-04-16T07:30:52.654Z,100734.81
2018-04-16T07:33:20.424Z,100745.52
2018-04-16T07:35:48.058Z,100745.93
2018-04-16T07:38:15.704Z,100744.84
2018-04-16T07:40:43.359Z,100751.41
2018-04-16T07:43:11.069Z,100749.80
2018-04-16T07:45:38.802Z,100757.41
2018-04-16T07:48:06.540Z,100759.48
2018-04-16T07:50:34.301Z,100754.58
2018-04-16T07:53:02.057Z,100759.66
2018-04-16T07:55:29.676Z,100771.75
2018-04-16T07:57:57.336Z,100773.16
2018-04-16T08:00:24.957Z,100774.64
2018-04-16T08:02:52.585Z,100775.48
2018-04-16T08:05:20.193Z,100779.40
2018-04-16T08:07:47.871Z,100774.06
2018-04-16T08:10:15.575Z,100783.34
2018-04-16T08:12:43.218Z,100782.00
2018-04-16T08:15:10.853Z,100787.40
2018-04-16T08:17:38.621Z,100794.37
2018-04-16T08:20:06.337Z,100792.80
2018-04-16T08:22:33.934Z,100801.56
2018-04-16T08:25:01.604Z,100802.45
2018-04-16T08:27:29.351Z,100802.52
2018-04-16T08:29:57.398Z,100805.55
2018-04-16T08:32:25.040Z,100803.20
2018-04-16T08:34:52.919Z,100802.38
2018-04-16T08:37:20.540Z,100805.51
2018-04-16T08:39:48.170Z,100800.48
2018-04-16T08:42:15.821Z,100802.66
2018-04-16T08:44:43.448Z,100806.55
2018-04-16T08:47:11.176Z,100805.02
2018-04-16T08:49:39.017Z,100807.55
2018-04-16T08:52:06.699Z,100808.83
2018-04-16T08:54:34.385Z,100812.27
2018-04-16T08:57:02.099Z,100813.45
2018-04-16T08:59:29.748Z,100815.97
2018-04-16T09:01:57.351Z,100819.34
2018-04-16T09:04:25.071Z,100823.11
2018-04-16T09:06:52.741Z,100823.66
2018-04-16T09:09:20.382Z,100826.41
2018-04-16T09:11:48.007Z,100825.42
2018-04-16T09:14:16.215Z,100829.11
2018-04-16T09:16:43.836Z,100836.45
2018-04-16T09:19:11.433Z,100830.57
2018-04-16T09:21:39.128Z,100829.19
2018-04-16T09:24:06.784Z,100834.44
2018-04-16T09:26:34.449Z,100839.66
2018-04-16T09:29:02.075Z,100839.06
2018-04-16T09:31:29.740Z,100834.78
2018-04-16T09:33:57.434Z,100845.33
2018-04-16T09:36:25.088Z,100847.03
2018-04-16T09:38:52.734Z,100852.81
2018-04-16T09:41:20.403Z,100856.53
2018-04-16T09:43:48.176Z,100854.50
2018-04-16T09:46:15.885Z,100860.55
2018-04-16T09:48:43.573Z,100857.34
2018-04-16T09:51:11.981Z,100860.78
2018-04-16T09:53:39.647Z,100859.83
2018-04-16T09:56:07.389Z,100864.35
2018-04-16T09:58:35.107Z,100863.06
2018-04-16T10:01:02.745Z,100873.40
2018-04-16T10:03:30.352Z,100869.02
2018-04-16T10:05:58.162Z,100867.11
2018-04-16T10:08:25.825Z,100868.72
2018-04-16T10:10:53.465Z,100862.11
2018-04-16T10:13:21.130Z,100867.22
2018-04-16T10:15:48.769Z,100872.55
2018-04-16T10:18:16.417Z,100877.05
2018-04-16T10:20:44.102Z,100868.78
2018-04-16T10:23:11.746Z,100866.98
2018-04-16T10:25:39.404Z,100871.63
2018-04-16T10:28:07.001Z,100873.11
2018-04-16T10:30:34.646Z,100870.47
2018-04-16T10:33:02.398Z,100872.89
2018-04-16T10:35:30.005Z,100880.22
2018-04-16T10:37:57.716Z,100876.14
2018-04-16T10:40:25.302Z,100867.89
2018-04-16T10:42:52.952Z,100875.24
2018-04-16T10:45:20.633Z,100878.53
2018-04-16T10:47:48.301Z,100882.09
2018-04-16T10:50:15.986Z,100883.17
2018-04-16T10:52:43.730Z,100881.97
2018-04-16T10:55:11.371Z,100880.08
2018-04-16T10:57:39.043Z,100881.23
2018-04-16T11:00:06.645Z,100882.53
2018-04-16T11:02:34.312Z,100885.34
2018-04-16T11:05:01.898Z,100888.63
2018-04-16T11:07:29.528Z,100882.19
2018-04-16T11:09:57.132Z,100885.56
2018-04-16T11:12:24.762Z,100893.69
2018-04-16T11:14:52.390Z,100908.30
2018-04-16T11:17:20.057Z,100896.37
2018-04-16T11:19:47.681Z,100898.04
2018-04-16T11:22:15.316Z,100893.59
2018-04-16T11:24:42.953Z,100897.02
2018-04-16T11:27:10.570Z,100896.86
2018-04-16T11:29:38.261Z,100893.15
2018-04-16T11:32:05.855Z,100898.16
2018-04-16T11:34:33.596Z,100895.03
2018-04-16T11:37:01.222Z,100897.63
2018-04-16T11:39:28.836Z,100901.64
2018-04-16T11:41:56.461Z,100897.48
2018-04-16T11:44:24.203Z,100897.91
2018-04-16T11:46:53.472Z,100902.48
2018-04-16T11:49:22.259Z,100904.91
2018-04-16T11:51:51.462Z,100896.23
2018-04-16T11:54:22.384Z,100897.48
2018-04-16T11:59:41.787Z,100902.98
2018-04-16T12:02:09.788Z,100900.60
2018-04-16T12:04:37.488Z,100908.13
2018-04-16T12:10:16.381Z,100894.05
2018-04-16T12:12:50.951Z,100912.88
2018-04-16T12:15:18.612Z,100913.22
2018-04-16T12:17:47.959Z,100906.12
2018-04-16T12:24:28.112Z,100917.81
2018-04-16T12:26:58.442Z,100910.80
2018-04-16T12:29:40.419Z,100910.05
2018-04-16T12:32:09.305Z,100911.54
2018-04-16T12:34:45.068Z,100915.20
2018-04-16T12:37:22.396Z,100908.44
2018-04-16T12:39:50.054Z,100902.95
2018-04-16T12:42:17.719Z,100906.50
2018-04-16T12:45:02.246Z,100902.29
2018-04-16T12:50:18.185Z,100907.11
2018-04-16T12:53:02.090Z,100905.84
2018-04-16T13:01:54.018Z,100926.52
2018-04-16T13:04:21.786Z,100924.42
2018-04-16T13:06:50.602Z,100932.12
2018-04-16T13:09:22.785Z,100931.42
2018-04-16T13:11:50.633Z,100938.95
2018-04-16T13:14:24.586Z,100939.36
2018-04-16T13:16:56.637Z,100938.42
2018-04-16T13:19:25.301Z,100943.95
2018-04-16T13:21:53.572Z,100939.98
2018-04-16T13:24:21.416Z,100938.05
2018-04-16T13:26:50.683Z,100939.71
2018-04-16T13:29:20.046Z,100943.61
2018-04-16T13:31:47.987Z,100946.71
2018-04-16T13:34:16.401Z,100944.69
2018-04-16T13:36:44.490Z,100949.08
2018-04-16T13:39:12.598Z,100950.84
2018-04-16T13:41:40.425Z,100948.16
2018-04-16T13:44:09.292Z,100947.38
2018-04-16T13:46:37.377Z,100958.59
2018-04-16T13:49:13.369Z,100957.81
2018-04-16T13:51:51.783Z,100961.27
2018-04-16T13:54:25.522Z,100959.19
2018-04-16T13:57:01.749Z,100962.63
2018-04-16T13:59:40.579Z,100964.43
2018-04-16T14:02:08.680Z,100960.45
2018-04-16T14:07:40.731Z,100954.97
2018-04-16T14:10:08.923Z,100953.02
2018-04-16T14:12:36.981Z,100956.64
2018-04-16T14:15:04.777Z,100960.20
2018-04-16T14:17:32.533Z,100957.24
2018-04-16T14:20:03.443Z,100961.97
2018-04-16T14:22:31.338Z,100962.27
2018-04-16T14:25:00.731Z,100966.28
2018-04-16T14:27:28.496Z,100954.02
2018-04-16T14:29:56.848Z,100958.16
2018-04-16T14:32:25.231Z,100970.78
2018-04-16T14:34:53.005Z,100972.45
2018-04-16T14:37:20.613Z,100976.22
2018-04-16T14:39:48.492Z,100979.99
2018-04-16T14:42:21.337Z,100978.00
2018-04-16T14:44:49.098Z,100974.67
2018-04-16T14:47:16.732Z,100978.56
2018-04-16T14:49:44.504Z,100976.78
2018-04-16T14:52:12.103Z,100977.41
2018-04-16T14:54:39.758Z,100988.65
2018-04-16T14:57:07.382Z,100989.77
2018-04-16T14:59:35.016Z,100985.68
2018-04-16T15:02:02.698Z,100989.33
2018-04-16T15:04:30.364Z,100994.41
2018-04-16T15:06:58.036Z,100994.06
2018-04-16T15:09:25.650Z,100990.09
2018-04-16T15:11:53.320Z,100983.38
2018-04-16T15:14:20.936Z,100989.20
2018-04-16T15:16:48.580Z,100987.47
2018-04-16T15:19:16.201Z,100982.23
2018-04-16T15:21:43.837Z,100986.06
2018-04-16T15:24:11.445Z,100992.41
2018-04-16T15:26:39.078Z,100986.27
2018-04-16T15:29:06.724Z,100984.16
2018-04-16T15:31:34.380Z,100986.50
2018-04-16T15:34:01.999Z,100984.70
2018-04-16T15:36:29.668Z,100988.50
2018-04-16T15:38:57.461Z,100985.48
2018-04-16T15:41:25.046Z,100983.03
2018-04-16T15:43:52.717Z,100983.88
2018-04-16T15:46:20.364Z,100978.53
2018-04-16T15:48:48.064Z,100980.87
2018-04-16T15:51:15.660Z,100983.02
2018-04-16T15:53:43.312Z,100984.75
2018-04-16T15:56:10.914Z,100990.33
2018-04-16T15:58:38.581Z,100987.78
2018-04-16T16:01:06.189Z,100994.61
2018-04-16T16:03:33.838Z,100992.31
2018-04-16T16:06:01.477Z,100997.41
2018-04-16T16:08:29.183Z,101005.03
2018-04-16T16:10:56.805Z,101012.86
2018-04-16T16:13:24.457Z,101008.88
2018-04-16T16:15:52.113Z,100997.62
2018-04-16T16:18:19.867Z,101004.90
2018-04-16T16:20:47.564Z,101007.15
2018-04-16T16:23:15.119Z,101010.22
2018-04-16T16:25:42.757Z,101017.39
2018-04-16T16:28:10.362Z,101013.74
2018-04-16T16:30:38.021Z,101013.70
2018-04-16T16:33:05.634Z,101014.69
2018-04-16T16:35:33.312Z,101013.34
2018-04-16T16:38:00.921Z,101016.37
2018-04-16T16:40:28.596Z,101016.76
2018-04-16T16:42:56.258Z,101019.25
2018-04-16T16:45:23.900Z,101016.13
2018-04-16T16:47:51.504Z,101016.20
2018-04-16T16:50:19.177Z,101020.05
2018-04-16T16:52:46.774Z,101025.96
2018-04-16T16:55:14.425Z,101026.14
2018-04-16T16:57:42.011Z,101021.16
2018-04-16T17:00:09.680Z,101025.39
2018-04-16T17:02:37.281Z,101032.09
2018-04-16T17:05:05.099Z,101031.27
2018-04-16T17:07:32.715Z,101039.05
2018-04-16T17:10:00.363Z,101042.86
2018-04-16T17:12:28.021Z,101045.11
2018-04-16T17:14:55.653Z,101044.20
2018-04-16T17:17:23.300Z,101051.77
2018-04-16T17:19:50.931Z,101052.89
2018-04-16T17:22:18.606Z,101054.19
2018-04-16T17:24:46.217Z,101063.67
2018-04-16T17:27:13.864Z,101069.42
2018-04-16T17:29:41.699Z,101067.34
2018-04-16T17:32:09.422Z,101064.55
2018-04-16T17:34:37.025Z,101064.84
2018-04-16T17:37:04.717Z,101069.08
2018-04-16T17:39:32.356Z,101069.99
2018-04-16T17:42:00.064Z,101074.73
2018-04-16T17:44:27.698Z,101082.13
2018-04-16T17:46:55.348Z,101079.50
2018-04-16T17:49:22.971Z,101078.23
2018-04-16T17:51:50.647Z,101080.75
2018-04-16T17:54:18.290Z,101088.20
2018-04-16T17:56:45.950Z,101086.80
2018-04-16T17:59:13.604Z,101091.09
2018-04-16T18:01:41.250Z,101100.17
2018-04-16T18:04:08.957Z,101096.00
2018-04-16T18:06:36.713Z,101108.06
2018-04-16T18:09:04.522Z,101103.55
2018-04-16T18:11:32.124Z,101111.36
2018-04-16T18:13:59.804Z,101115.39
2018-04-16T18:16:27.471Z,101114.28
2018-04-16T18:18:55.117Z,101120.08
2018-04-16T18:21:22.793Z,101122.33
2018-04-16T18:23:50.465Z,101121.16
2018-04-16T18:26:18.111Z,101127.05
2018-04-16T18:28:45.813Z,101133.52
2018-04-16T18:31:13.440Z,101135.91
2018-04-16T18:33:41.123Z,101141.58
2018-04-16T18:36:08.728Z,101141.93
2018-04-16T18:38:36.394Z,101152.08
2018-04-16T18:41:04.070Z,101151.33
2018-04-16T18:43:31.734Z,101160.78
2018-04-16T18:45:59.340Z,101163.41
2018-04-16T18:48:26.959Z,101168.81
2018-04-16T18:50:54.600Z,101175.84
2018-04-16T18:53:22.213Z,101182.00
2018-04-16T18:55:49.888Z,101183.28
2018-04-16T18:58:17.515Z,101188.48
2018-04-16T19:00:45.168Z,101186.87
2018-04-16T19:03:13.780Z,101199.44
2018-04-16T19:05:41.520Z,101200.88
2018-04-16T19:08:09.107Z,101206.41
2018-04-16T19:10:36.778Z,101215.59
2018-04-16T19:13:04.406Z,101218.20
2018-04-16T19:15:32.055Z,101229.50
2018-04-16T19:17:59.741Z,101230.33
2018-04-16T19:20:32.985Z,101233.23
2018-04-16T19:23:01.196Z,101236.91
2018-04-16T19:25:28.887Z,101239.92
2018-04-16T19:28:02.074Z,101242.08
2018-04-16T19:30:31.591Z,101252.62
2018-04-16T19:33:04.873Z,101258.50
2018-04-16T19:35:32.742Z,101264.94
2018-04-16T19:38:00.471Z,101264.86
2018-04-16T19:40:28.227Z,101272.27
2018-04-16T19:42:55.979Z,101273.64
2018-04-16T19:45:23.621Z,101281.73
2018-04-16T19:47:51.249Z,101276.56
2018-04-16T19:50:18.902Z,101285.12
2018-04-16T19:52:46.540Z,101286.70
2018-04-16T19:55:14.176Z,101289.23
2018-04-16T19:57:47.376Z,101291.37
2018-04-16T20:00:15.053Z,101294.55
2018-04-16T20:02:48.139Z,101300.19
2018-04-16T20:05:15.750Z,101302.73
2018-04-16T20:07:43.416Z,101310.27
2018-04-16T20:10:11.070Z,101306.07
2018-04-16T20:12:38.736Z,101312.28
2018-04-16T20:15:06.341Z,101319.16
2018-04-16T20:17:33.983Z,101320.54
2018-04-16T20:20:01.600Z,101325.02
2018-04-16T20:22:29.249Z,101331.60
2018-04-16T20:24:56.920Z,101330.57
2018-04-16T20:27:24.598Z,101336.74
2018-04-16T20:29:52.237Z,101331.36
2018-04-16T20:32:19.878Z,101326.33
2018-04-16T20:34:47.506Z,101326.27
2018-04-16T20:37:15.199Z,101324.70
2018-04-16T20:39:42.823Z,101333.48
2018-04-16T20:42:10.481Z,101329.45
2018-04-16T20:44:38.145Z,101336.57
2018-04-16T20:47:05.793Z,101345.28
2018-04-16T20:49:33.439Z,101338.08
2018-04-16T20:52:01.119Z,101339.63
2018-04-16T20:54:28.750Z,101341.81
2018-04-16T20:56:56.445Z,101342.07
2018-04-16T20:59:24.132Z,101344.74
2018-04-16T21:01:51.903Z,101346.69
2018-04-16T21:47:36.262Z,101377.22
2018-04-16T21:50:15.248Z,101385.89
2018-04-16T21:52:48.430Z,101383.99
2018-04-16T21:55:44.416Z,101387.02
2018-04-16T22:04:20.453Z,101392.86
2018-04-16T22:12:37.300Z,101394.91
2018-04-16T22:21:03.947Z,101394.38
2018-04-16T22:27:09.035Z,101412.05
2018-04-16T22:32:27.513Z,101416.61
2018-04-16T22:37:44.282Z,101424.42
2018-04-16T22:40:24.585Z,101428.47
2018-04-16T22:51:56.028Z,101438.31
2018-04-16T22:54:49.680Z,101440.31
2018-04-16T22:57:37.641Z,101444.64
2018-04-16T23:00:20.726Z,101450.97
2018-04-16T23:05:38.164Z,101461.08
2018-04-16T23:08:19.347Z,101463.63
2018-04-16T23:10:55.402Z,101463.04
2018-04-16T23:13:32.657Z,101467.74
2018-04-16T23:16:17.348Z,101466.94
2018-04-16T23:21:44.563Z,101469.88
2018-04-16T23:24:17.224Z,101475.09
2018-04-16T23:26:58.079Z,101472.16
2018-04-16T23:35:52.860Z,101478.22
2018-04-16T23:38:27.448Z,101481.05
2018-04-16T23:41:05.358Z,101483.13
2018-04-16T23:52:55.683Z,101487.02
2018-04-16T23:55:27.835Z,101488.05
